• Join FlightAware (Why Join?)
  • Login
  • US Flag 
12:26PM EST


 

Airport Tracker/Info


-or-


 

Live Flight TrackerFlight Track Log ✈ N589H ✈ 29-Mar-2014 ✈ KPIE - KVNC

Flight Track Log - Related Links

Times and Time Zones

All times are in EDT time to prevent confusion due to time zone crossing. See the N589H flight status page for this flight to view local times or setup timezone preferences in your user account.

Time Position Orientation Groundspeed Altitude Reporting Facility
EDT Latitude Longitude Course Direction KTS MPH feet Rate Location/Type
07:39AM 27.9000 -82.6833 180° South 144 166 600  Level Tampa TRACON
07:40AM 27.8833 -82.6833 180° South 140 161 1,600 1,500 Climbing Tampa TRACON
07:41AM 27.8333 -82.7000 196° South 168 193 2,900 1,380 Climbing Tampa TRACON
07:42AM 27.7833 -82.6833 164° South 207 238 4,400 1,020 Climbing Tampa TRACON
07:43AM 27.7333 -82.6667 164° South 217 250 5,000 300 Climbing Tampa TRACON
07:44AM 27.6667 -82.6500 168° South 216 249 5,000  Level Tampa TRACON
07:45AM 27.6167 -82.6333 164° South 189 217 5,000  Level Tampa TRACON
07:46AM 27.5667 -82.6167 164° South 175 201 5,000  Level Tampa TRACON
07:47AM 27.5333 -82.5833 138° Southeast 182 209 5,000  Level Tampa TRACON
07:48AM 27.5000 -82.5500 138° Southeast 194 223 5,000  Level Tampa TRACON
07:49AM 27.4667 -82.5000 127° Southeast 186 214 5,000  Level Tampa TRACON
07:50AM 27.4333 -82.4667 138° Southeast 179 206 5,000 -480 Level Tampa TRACON
07:51AM 27.3833 -82.4167 138° Southeast 209 241 4,100 -540 Descending Tampa TRACON
07:52AM 27.3500 -82.3833 138° Southeast 182 209 4,000 -300 Descending Tampa TRACON
07:53AM 27.3167 -82.3500 138° Southeast 175 201 3,500 -540 Descending Tampa TRACON
07:54AM 27.2667 -82.3000 138° Southeast 186 214 3,000 -300 Descending Tampa TRACON
07:55AM 27.2333 -82.2667 138° Southeast 175 201 3,000 -600 Level Tampa TRACON
07:56AM 27.2000 -82.2833 204° Southwest 157 181 1,900 -720 Descending Tampa TRACON
07:57AM 27.1833 -82.3167 241° Southwest 133 153 1,600 -120 Descending Tampa TRACON
07:58AM 27.1500 -82.3500 222° Southwest 136 157 1,700 -120 Climbing Tampa TRACON
07:59AM 27.1333 -82.3833 241° Southwest 135 155 1,400 -480 Descending Tampa TRACON
08:00AM 27.1167 -82.4000 222° Southwest 121 139 800 -600 Descending Tampa TRACON